Japan Airlines Virtual Airport Information Service

Hanoi Noi Bai International Airport

ICAO: VVNB Country: Vietnam
Latitude: 21.2212 Longitude: 105.807
Latest Arrival : VJC504 (VVDN-VVNB) Latest Departure : CPA2048 (VVNB-VHHH)


WX CaptureLIVE
Data provided by noaa.gov | Fetched at 12:51:35

METAR : VVNB 061230Z 10008KT 9999 SCT013 BKN020 28/25 Q1005 NOSIG

TAF : VVNB 061100Z 0612/0712 11007KT 9999 SCT015 BKN030 TEMPO 0620/0624 3000 +TSRA SCT010 FEW025CB BKN030


Runway Data for VVNB
Data provided by openaviationdata.com

Runway ID Mag Var Hdg Length Elevation Surface ILS Freq ILS Id ILS Slope
11L -1 108° 10500 ft 40 ft Concrete 110.5 NB 3
29R -1 288° 10500 ft 40 ft Concrete -- -- --

Hanoi Noi Bai International Airport, Vietnam
Use only for reference purposes



Not for navigational purposes.